sensor_id;sensor_type;location;lat;lon;timestamp;temperature;humidity
20366;DHT22;10341;49.894;8.822;2023-07-16T00:03:08;19.80;99.90
20366;DHT22;10341;49.894;8.822;2023-07-16T00:08:28;19.80;99.90
20366;DHT22;10341;49.894;8.822;2023-07-16T00:13:48;19.80;99.90
20366;DHT22;10341;49.894;8.822;2023-07-16T00:19:09;19.70;99.90
20366;DHT22;10341;49.894;8.822;2023-07-16T00:24:29;19.70;99.90
20366;DHT22;10341;49.894;8.822;2023-07-16T00:29:48;19.60;99.90
20366;DHT22;10341;49.894;8.822;2023-07-16T00:35:08;19.60;99.90
20366;DHT22;10341;49.894;8.822;2023-07-16T00:40:28;19.60;99.90
20366;DHT22;10341;49.894;8.822;2023-07-16T00:45:47;19.50;99.90
20366;DHT22;10341;49.894;8.822;2023-07-16T00:51:07;19.50;99.90
20366;DHT22;10341;49.894;8.822;2023-07-16T00:56:27;19.40;99.90
20366;DHT22;10341;49.894;8.822;2023-07-16T01:01:46;19.30;99.90
20366;DHT22;10341;49.894;8.822;2023-07-16T01:07:08;19.30;99.90
20366;DHT22;10341;49.894;8.822;2023-07-16T01:12:30;19.20;99.90
20366;DHT22;10341;49.894;8.822;2023-07-16T01:17:50;19.10;99.90
20366;DHT22;10341;49.894;8.822;2023-07-16T01:23:35;19.10;99.90
20366;DHT22;10341;49.894;8.822;2023-07-16T01:34:34;18.90;99.90
20366;DHT22;10341;49.894;8.822;2023-07-16T01:39:55;18.90;99.90
20366;DHT22;10341;49.894;8.822;2023-07-16T01:45:14;18.90;99.90
20366;DHT22;10341;49.894;8.822;2023-07-16T01:50:34;18.80;99.90
20366;DHT22;10341;49.894;8.822;2023-07-16T01:55:54;18.70;99.90
20366;DHT22;10341;49.894;8.822;2023-07-16T02:01:13;18.60;99.90
20366;DHT22;10341;49.894;8.822;2023-07-16T02:06:33;18.60;99.90
20366;DHT22;10341;49.894;8.822;2023-07-16T02:11:53;18.50;99.90
20366;DHT22;10341;49.894;8.822;2023-07-16T02:17:12;18.40;99.90
20366;DHT22;10341;49.894;8.822;2023-07-16T02:22:33;18.30;99.90
20366;DHT22;10341;49.894;8.822;2023-07-16T02:27:52;18.20;99.90
20366;DHT22;10341;49.894;8.822;2023-07-16T02:33:11;18.10;99.90
20366;DHT22;10341;49.894;8.822;2023-07-16T02:38:31;18.10;99.90
20366;DHT22;10341;49.894;8.822;2023-07-16T02:44:03;18.10;99.90
20366;DHT22;10341;49.894;8.822;2023-07-16T02:49:23;18.10;99.90
20366;DHT22;10341;49.894;8.822;2023-07-16T02:54:42;18.00;99.90
20366;DHT22;10341;49.894;8.822;2023-07-16T03:00:02;18.00;99.90
20366;DHT22;10341;49.894;8.822;2023-07-16T03:05:21;17.90;99.90
20366;DHT22;10341;49.894;8.822;2023-07-16T03:10:41;17.90;99.90
20366;DHT22;10341;49.894;8.822;2023-07-16T03:16:00;17.90;99.90
20366;DHT22;10341;49.894;8.822;2023-07-16T03:21:20;17.90;99.90
20366;DHT22;10341;49.894;8.822;2023-07-16T03:26:41;17.90;99.90
20366;DHT22;10341;49.894;8.822;2023-07-16T03:32:00;17.90;99.90
20366;DHT22;10341;49.894;8.822;2023-07-16T03:37:20;17.90;99.90
20366;DHT22;10341;49.894;8.822;2023-07-16T03:42:41;17.90;99.90
20366;DHT22;10341;49.894;8.822;2023-07-16T03:48:00;17.80;99.90
20366;DHT22;10341;49.894;8.822;2023-07-16T03:53:20;17.80;99.90
20366;DHT22;10341;49.894;8.822;2023-07-16T03:58:39;17.90;99.90
20366;DHT22;10341;49.894;8.822;2023-07-16T04:03:59;17.90;99.90
20366;DHT22;10341;49.894;8.822;2023-07-16T04:09:19;18.00;99.90
20366;DHT22;10341;49.894;8.822;2023-07-16T04:14:38;18.00;99.90
20366;DHT22;10341;49.894;8.822;2023-07-16T04:19:58;18.00;99.90
20366;DHT22;10341;49.894;8.822;2023-07-16T04:25:17;17.90;99.90
20366;DHT22;10341;49.894;8.822;2023-07-16T04:30:36;17.80;99.90
20366;DHT22;10341;49.894;8.822;2023-07-16T04:35:59;17.80;99.90
20366;DHT22;10341;49.894;8.822;2023-07-16T04:41:18;17.70;99.90
20366;DHT22;10341;49.894;8.822;2023-07-16T04:46:37;17.70;99.90
20366;DHT22;10341;49.894;8.822;2023-07-16T04:51:56;17.70;99.90
20366;DHT22;10341;49.894;8.822;2023-07-16T04:57:16;17.70;99.90
20366;DHT22;10341;49.894;8.822;2023-07-16T05:02:35;17.70;99.90
20366;DHT22;10341;49.894;8.822;2023-07-16T05:07:54;17.80;99.90
20366;DHT22;10341;49.894;8.822;2023-07-16T05:13:14;17.80;99.90
20366;DHT22;10341;49.894;8.822;2023-07-16T05:18:35;17.70;99.90
20366;DHT22;10341;49.894;8.822;2023-07-16T05:23:54;17.70;99.90
20366;DHT22;10341;49.894;8.822;2023-07-16T05:29:13;17.90;99.90
20366;DHT22;10341;49.894;8.822;2023-07-16T05:34:32;18.00;99.90
20366;DHT22;10341;49.894;8.822;2023-07-16T05:39:52;18.10;99.90
20366;DHT22;10341;49.894;8.822;2023-07-16T05:45:11;18.20;99.90
20366;DHT22;10341;49.894;8.822;2023-07-16T05:50:30;18.20;99.90
20366;DHT22;10341;49.894;8.822;2023-07-16T05:55:49;18.30;99.90
20366;DHT22;10341;49.894;8.822;2023-07-16T06:01:10;18.40;99.90
20366;DHT22;10341;49.894;8.822;2023-07-16T06:06:30;18.40;99.90
20366;DHT22;10341;49.894;8.822;2023-07-16T06:11:49;18.50;99.90
20366;DHT22;10341;49.894;8.822;2023-07-16T06:17:09;18.60;99.90
20366;DHT22;10341;49.894;8.822;2023-07-16T06:22:28;18.70;99.90
20366;DHT22;10341;49.894;8.822;2023-07-16T06:27:47;18.80;99.90
20366;DHT22;10341;49.894;8.822;2023-07-16T06:33:07;18.80;99.90
20366;DHT22;10341;49.894;8.822;2023-07-16T06:38:26;18.90;99.90
20366;DHT22;10341;49.894;8.822;2023-07-16T06:43:46;18.90;99.90
20366;DHT22;10341;49.894;8.822;2023-07-16T06:49:05;19.10;99.90
20366;DHT22;10341;49.894;8.822;2023-07-16T06:54:26;19.20;99.90
20366;DHT22;10341;49.894;8.822;2023-07-16T06:59:46;19.30;99.90
20366;DHT22;10341;49.894;8.822;2023-07-16T07:05:06;19.30;99.90
20366;DHT22;10341;49.894;8.822;2023-07-16T07:10:25;19.40;99.90
20366;DHT22;10341;49.894;8.822;2023-07-16T07:15:45;19.60;99.90
20366;DHT22;10341;49.894;8.822;2023-07-16T07:21:04;19.60;99.90
20366;DHT22;10341;49.894;8.822;2023-07-16T07:26:23;19.90;99.90
20366;DHT22;10341;49.894;8.822;2023-07-16T07:31:41;20.10;99.90
20366;DHT22;10341;49.894;8.822;2023-07-16T07:37:00;20.10;99.90
20366;DHT22;10341;49.894;8.822;2023-07-16T07:42:20;20.30;99.90
20366;DHT22;10341;49.894;8.822;2023-07-16T07:47:39;20.60;99.90
20366;DHT22;10341;49.894;8.822;2023-07-16T07:52:58;20.60;99.90
20366;DHT22;10341;49.894;8.822;2023-07-16T07:58:16;21.00;99.90
20366;DHT22;10341;49.894;8.822;2023-07-16T08:03:36;21.30;99.90
20366;DHT22;10341;49.894;8.822;2023-07-16T08:08:55;21.70;99.90
20366;DHT22;10341;49.894;8.822;2023-07-16T08:14:15;22.40;99.90
20366;DHT22;10341;49.894;8.822;2023-07-16T08:19:35;23.90;99.90
20366;DHT22;10341;49.894;8.822;2023-07-16T08:24:54;25.60;99.90
20366;DHT22;10341;49.894;8.822;2023-07-16T08:30:14;25.60;99.60
20366;DHT22;10341;49.894;8.822;2023-07-16T08:35:33;25.80;98.20
20366;DHT22;10341;49.894;8.822;2023-07-16T08:40:53;27.50;96.10
20366;DHT22;10341;49.894;8.822;2023-07-16T08:46:13;27.30;94.10
20366;DHT22;10341;49.894;8.822;2023-07-16T08:51:32;28.10;93.60
20366;DHT22;10341;49.894;8.822;2023-07-16T08:56:53;27.80;92.30
20366;DHT22;10341;49.894;8.822;2023-07-16T09:02:13;27.90;92.50
20366;DHT22;10341;49.894;8.822;2023-07-16T09:07:33;28.90;90.70
20366;DHT22;10341;49.894;8.822;2023-07-16T09:12:58;28.40;90.30
20366;DHT22;10341;49.894;8.822;2023-07-16T09:18:22;29.00;90.60
20366;DHT22;10341;49.894;8.822;2023-07-16T09:23:42;29.10;89.50
20366;DHT22;10341;49.894;8.822;2023-07-16T09:29:05;28.70;88.30
20366;DHT22;10341;49.894;8.822;2023-07-16T09:34:30;28.60;87.30
20366;DHT22;10341;49.894;8.822;2023-07-16T09:39:49;28.10;90.00
20366;DHT22;10341;49.894;8.822;2023-07-16T09:45:17;27.80;88.20
20366;DHT22;10341;49.894;8.822;2023-07-16T09:50:38;27.70;86.40
20366;DHT22;10341;49.894;8.822;2023-07-16T09:56:00;29.80;81.20
20366;DHT22;10341;49.894;8.822;2023-07-16T10:01:19;29.70;80.00
20366;DHT22;10341;49.894;8.822;2023-07-16T10:06:58;29.10;78.30
20366;DHT22;10341;49.894;8.822;2023-07-16T10:12:20;30.60;77.00
20366;DHT22;10341;49.894;8.822;2023-07-16T10:17:50;30.60;75.50
20366;DHT22;10341;49.894;8.822;2023-07-16T10:23:14;30.60;74.80
20366;DHT22;10341;49.894;8.822;2023-07-16T10:28:33;31.10;72.70
20366;DHT22;10341;49.894;8.822;2023-07-16T10:34:02;30.90;72.00
20366;DHT22;10341;49.894;8.822;2023-07-16T10:39:23;32.20;69.30
20366;DHT22;10341;49.894;8.822;2023-07-16T10:44:42;32.30;69.60
20366;DHT22;10341;49.894;8.822;2023-07-16T10:50:09;32.30;68.40
20366;DHT22;10341;49.894;8.822;2023-07-16T10:55:29;29.90;71.70
20366;DHT22;10341;49.894;8.822;2023-07-16T11:00:50;30.20;72.70
20366;DHT22;10341;49.894;8.822;2023-07-16T11:06:09;30.40;69.50
20366;DHT22;10341;49.894;8.822;2023-07-16T11:11:30;29.70;71.40
20366;DHT22;10341;49.894;8.822;2023-07-16T11:16:49;30.10;69.80
20366;DHT22;10341;49.894;8.822;2023-07-16T11:22:09;30.50;68.90
20366;DHT22;10341;49.894;8.822;2023-07-16T11:27:32;31.50;68.20
20366;DHT22;10341;49.894;8.822;2023-07-16T11:32:52;31.20;67.50
20366;DHT22;10341;49.894;8.822;2023-07-16T11:38:11;31.80;65.00
20366;DHT22;10341;49.894;8.822;2023-07-16T11:43:34;31.90;64.10
20366;DHT22;10341;49.894;8.822;2023-07-16T11:48:55;32.00;62.90
20366;DHT22;10341;49.894;8.822;2023-07-16T11:54:14;31.90;62.50
20366;DHT22;10341;49.894;8.822;2023-07-16T11:59:33;32.20;60.00
20366;DHT22;10341;49.894;8.822;2023-07-16T12:04:52;33.60;60.70
20366;DHT22;10341;49.894;8.822;2023-07-16T12:10:11;33.10;60.00
20366;DHT22;10341;49.894;8.822;2023-07-16T12:15:31;32.70;59.60
20366;DHT22;10341;49.894;8.822;2023-07-16T12:20:51;32.10;61.10
20366;DHT22;10341;49.894;8.822;2023-07-16T12:26:10;33.10;57.60
20366;DHT22;10341;49.894;8.822;2023-07-16T12:31:32;33.30;59.50
20366;DHT22;10341;49.894;8.822;2023-07-16T12:36:52;32.80;58.20
20366;DHT22;10341;49.894;8.822;2023-07-16T12:42:13;33.30;58.40
20366;DHT22;10341;49.894;8.822;2023-07-16T12:47:32;32.90;58.70
20366;DHT22;10341;49.894;8.822;2023-07-16T12:52:52;33.60;58.70
20366;DHT22;10341;49.894;8.822;2023-07-16T12:58:11;32.90;57.60
20366;DHT22;10341;49.894;8.822;2023-07-16T13:03:30;32.70;58.40
20366;DHT22;10341;49.894;8.822;2023-07-16T13:08:49;33.00;57.00
20366;DHT22;10341;49.894;8.822;2023-07-16T13:14:08;32.50;59.20
20366;DHT22;10341;49.894;8.822;2023-07-16T13:19:28;32.10;58.90
20366;DHT22;10341;49.894;8.822;2023-07-16T13:24:47;31.70;58.00
20366;DHT22;10341;49.894;8.822;2023-07-16T13:30:07;31.50;59.40
20366;DHT22;10341;49.894;8.822;2023-07-16T13:35:26;32.00;61.10
20366;DHT22;10341;49.894;8.822;2023-07-16T13:40:46;31.80;58.70
20366;DHT22;10341;49.894;8.822;2023-07-16T13:46:05;31.30;58.50
20366;DHT22;10341;49.894;8.822;2023-07-16T13:51:24;31.10;60.30
20366;DHT22;10341;49.894;8.822;2023-07-16T13:56:43;30.70;60.00
20366;DHT22;10341;49.894;8.822;2023-07-16T14:02:02;30.10;61.20
20366;DHT22;10341;49.894;8.822;2023-07-16T14:07:22;30.90;61.20
20366;DHT22;10341;49.894;8.822;2023-07-16T14:12:41;31.60;59.60
20366;DHT22;10341;49.894;8.822;2023-07-16T14:18:00;31.60;60.30
20366;DHT22;10341;49.894;8.822;2023-07-16T14:23:20;31.40;59.10
20366;DHT22;10341;49.894;8.822;2023-07-16T14:28:39;31.10;60.30
20366;DHT22;10341;49.894;8.822;2023-07-16T14:33:58;31.80;60.60
20366;DHT22;10341;49.894;8.822;2023-07-16T14:39:18;31.70;58.40
20366;DHT22;10341;49.894;8.822;2023-07-16T14:44:37;31.70;59.90
20366;DHT22;10341;49.894;8.822;2023-07-16T14:49:56;30.60;59.90
20366;DHT22;10341;49.894;8.822;2023-07-16T14:55:15;29.90;61.20
20366;DHT22;10341;49.894;8.822;2023-07-16T15:00:35;29.50;62.30
20366;DHT22;10341;49.894;8.822;2023-07-16T15:05:58;30.20;62.00
20366;DHT22;10341;49.894;8.822;2023-07-16T15:11:17;30.30;61.00
20366;DHT22;10341;49.894;8.822;2023-07-16T15:16:37;30.30;61.10
20366;DHT22;10341;49.894;8.822;2023-07-16T15:21:56;29.90;62.50
20366;DHT22;10341;49.894;8.822;2023-07-16T15:27:15;29.30;62.40
20366;DHT22;10341;49.894;8.822;2023-07-16T15:32:35;29.50;62.60
20366;DHT22;10341;49.894;8.822;2023-07-16T15:37:54;29.70;61.70
20366;DHT22;10341;49.894;8.822;2023-07-16T15:43:15;29.30;61.50
20366;DHT22;10341;49.894;8.822;2023-07-16T15:48:34;27.80;64.30
20366;DHT22;10341;49.894;8.822;2023-07-16T15:53:54;27.40;65.80
20366;DHT22;10341;49.894;8.822;2023-07-16T15:59:13;27.90;64.90
20366;DHT22;10341;49.894;8.822;2023-07-16T16:04:33;28.60;63.50
20366;DHT22;10341;49.894;8.822;2023-07-16T16:09:52;28.40;63.20
20366;DHT22;10341;49.894;8.822;2023-07-16T16:15:11;28.30;64.90
20366;DHT22;10341;49.894;8.822;2023-07-16T16:20:30;28.10;64.30
20366;DHT22;10341;49.894;8.822;2023-07-16T16:25:49;28.80;63.50
20366;DHT22;10341;49.894;8.822;2023-07-16T16:31:09;29.00;64.00
20366;DHT22;10341;49.894;8.822;2023-07-16T16:36:28;29.00;62.70
20366;DHT22;10341;49.894;8.822;2023-07-16T16:41:47;28.20;64.70
20366;DHT22;10341;49.894;8.822;2023-07-16T16:47:06;27.20;64.60
20366;DHT22;10341;49.894;8.822;2023-07-16T16:52:25;26.80;66.50
20366;DHT22;10341;49.894;8.822;2023-07-16T16:57:45;27.00;66.50
20366;DHT22;10341;49.894;8.822;2023-07-16T17:03:04;26.60;65.50
20366;DHT22;10341;49.894;8.822;2023-07-16T17:08:24;26.40;67.60
20366;DHT22;10341;49.894;8.822;2023-07-16T17:13:43;25.90;68.70
20366;DHT22;10341;49.894;8.822;2023-07-16T17:19:02;25.40;69.80
20366;DHT22;10341;49.894;8.822;2023-07-16T17:24:21;25.10;70.80
20366;DHT22;10341;49.894;8.822;2023-07-16T17:29:44;25.20;70.40
20366;DHT22;10341;49.894;8.822;2023-07-16T17:35:05;25.40;70.60
20366;DHT22;10341;49.894;8.822;2023-07-16T17:40:24;25.60;70.10
20366;DHT22;10341;49.894;8.822;2023-07-16T17:45:44;25.30;70.70
20366;DHT22;10341;49.894;8.822;2023-07-16T17:51:03;25.20;70.90
20366;DHT22;10341;49.894;8.822;2023-07-16T17:56:23;25.10;71.60
20366;DHT22;10341;49.894;8.822;2023-07-16T18:01:42;24.90;71.10
20366;DHT22;10341;49.894;8.822;2023-07-16T18:07:01;24.80;72.70
20366;DHT22;10341;49.894;8.822;2023-07-16T18:12:22;24.60;73.40
20366;DHT22;10341;49.894;8.822;2023-07-16T18:17:43;24.40;73.40
20366;DHT22;10341;49.894;8.822;2023-07-16T18:23:06;24.20;73.90
20366;DHT22;10341;49.894;8.822;2023-07-16T18:28:25;24.00;74.00
20366;DHT22;10341;49.894;8.822;2023-07-16T18:33:44;23.90;76.40
20366;DHT22;10341;49.894;8.822;2023-07-16T18:39:03;23.70;77.20
20366;DHT22;10341;49.894;8.822;2023-07-16T18:44:24;23.40;78.20
20366;DHT22;10341;49.894;8.822;2023-07-16T18:49:43;23.20;78.20
20366;DHT22;10341;49.894;8.822;2023-07-16T18:55:03;23.00;81.00
20366;DHT22;10341;49.894;8.822;2023-07-16T19:00:22;22.90;79.00
20366;DHT22;10341;49.894;8.822;2023-07-16T19:05:42;22.70;79.80
20366;DHT22;10341;49.894;8.822;2023-07-16T19:11:02;22.50;81.40
20366;DHT22;10341;49.894;8.822;2023-07-16T19:16:21;22.30;86.40
20366;DHT22;10341;49.894;8.822;2023-07-16T19:21:41;21.90;90.70
20366;DHT22;10341;49.894;8.822;2023-07-16T19:27:01;21.60;92.90
20366;DHT22;10341;49.894;8.822;2023-07-16T19:32:21;21.30;93.50
20366;DHT22;10341;49.894;8.822;2023-07-16T19:37:40;21.10;93.60
20366;DHT22;10341;49.894;8.822;2023-07-16T19:42:59;20.90;95.00
20366;DHT22;10341;49.894;8.822;2023-07-16T19:48:18;20.70;96.90
20366;DHT22;10341;49.894;8.822;2023-07-16T19:53:37;20.40;99.20
20366;DHT22;10341;49.894;8.822;2023-07-16T19:58:56;20.00;99.90
20366;DHT22;10341;49.894;8.822;2023-07-16T20:04:16;19.60;99.90
20366;DHT22;10341;49.894;8.822;2023-07-16T20:09:35;19.20;99.90
20366;DHT22;10341;49.894;8.822;2023-07-16T20:14:54;18.90;99.90
20366;DHT22;10341;49.894;8.822;2023-07-16T20:20:13;18.60;99.90
20366;DHT22;10341;49.894;8.822;2023-07-16T20:25:34;18.50;99.90
20366;DHT22;10341;49.894;8.822;2023-07-16T20:30:55;18.30;99.90
20366;DHT22;10341;49.894;8.822;2023-07-16T20:36:14;18.10;99.90
20366;DHT22;10341;49.894;8.822;2023-07-16T20:41:33;17.80;99.90
20366;DHT22;10341;49.894;8.822;2023-07-16T20:46:53;17.70;99.90
20366;DHT22;10341;49.894;8.822;2023-07-16T20:52:12;17.50;99.90
20366;DHT22;10341;49.894;8.822;2023-07-16T20:57:31;17.40;99.90
20366;DHT22;10341;49.894;8.822;2023-07-16T21:02:52;17.40;99.90
20366;DHT22;10341;49.894;8.822;2023-07-16T21:08:12;17.40;99.90
20366;DHT22;10341;49.894;8.822;2023-07-16T21:13:31;17.20;99.90
20366;DHT22;10341;49.894;8.822;2023-07-16T21:18:49;17.10;99.90
20366;DHT22;10341;49.894;8.822;2023-07-16T21:24:09;17.10;99.90
20366;DHT22;10341;49.894;8.822;2023-07-16T21:29:28;17.00;99.90
20366;DHT22;10341;49.894;8.822;2023-07-16T21:34:47;16.80;99.90
20366;DHT22;10341;49.894;8.822;2023-07-16T21:40:07;17.00;99.90
20366;DHT22;10341;49.894;8.822;2023-07-16T21:45:26;17.00;99.90
20366;DHT22;10341;49.894;8.822;2023-07-16T21:50:46;16.80;99.90
20366;DHT22;10341;49.894;8.822;2023-07-16T21:56:05;16.60;99.90
20366;DHT22;10341;49.894;8.822;2023-07-16T22:01:25;16.50;99.90
20366;DHT22;10341;49.894;8.822;2023-07-16T22:06:44;16.40;99.90
20366;DHT22;10341;49.894;8.822;2023-07-16T22:12:04;16.20;99.90
20366;DHT22;10341;49.894;8.822;2023-07-16T22:17:23;16.00;99.90
20366;DHT22;10341;49.894;8.822;2023-07-16T22:22:43;15.80;99.90
20366;DHT22;10341;49.894;8.822;2023-07-16T22:28:02;15.70;99.90
20366;DHT22;10341;49.894;8.822;2023-07-16T22:33:22;15.50;99.90
20366;DHT22;10341;49.894;8.822;2023-07-16T22:38:41;15.40;99.90
20366;DHT22;10341;49.894;8.822;2023-07-16T22:44:00;15.20;99.90
20366;DHT22;10341;49.894;8.822;2023-07-16T22:49:19;15.10;99.90
20366;DHT22;10341;49.894;8.822;2023-07-16T22:54:39;14.90;99.90
20366;DHT22;10341;49.894;8.822;2023-07-16T22:59:58;14.80;99.90
20366;DHT22;10341;49.894;8.822;2023-07-16T23:05:17;14.70;99.90
20366;DHT22;10341;49.894;8.822;2023-07-16T23:10:37;14.60;99.90
20366;DHT22;10341;49.894;8.822;2023-07-16T23:15:56;14.50;99.90
20366;DHT22;10341;49.894;8.822;2023-07-16T23:21:16;14.40;99.90
20366;DHT22;10341;49.894;8.822;2023-07-16T23:26:35;14.40;99.90
20366;DHT22;10341;49.894;8.822;2023-07-16T23:31:54;14.30;99.90
20366;DHT22;10341;49.894;8.822;2023-07-16T23:37:13;14.30;99.90
20366;DHT22;10341;49.894;8.822;2023-07-16T23:42:33;14.30;99.90
20366;DHT22;10341;49.894;8.822;2023-07-16T23:47:52;14.40;99.90
20366;DHT22;10341;49.894;8.822;2023-07-16T23:53:11;14.40;99.90
20366;DHT22;10341;49.894;8.822;2023-07-16T23:58:30;14.30;99.90
